sensor_id;sensor_type;location;lat;lon;timestamp;P1;durP1;ratioP1;P2;durP2;ratioP2
60582;SDS011;46415;47.536;19.066;2022-09-12T00:02:07;2.90;;;2.20;;
60582;SDS011;46415;47.536;19.066;2022-09-12T00:05:10;2.90;;;2.58;;
60582;SDS011;46415;47.536;19.066;2022-09-12T00:08:13;2.90;;;2.70;;
60582;SDS011;46415;47.536;19.066;2022-09-12T00:11:16;2.83;;;2.40;;
60582;SDS011;46415;47.536;19.066;2022-09-12T00:14:19;3.03;;;2.70;;
60582;SDS011;46415;47.536;19.066;2022-09-12T00:17:22;2.75;;;2.47;;
60582;SDS011;46415;47.536;19.066;2022-09-12T00:20:24;3.20;;;2.75;;
60582;SDS011;46415;47.536;19.066;2022-09-12T00:23:27;2.92;;;2.72;;
60582;SDS011;46415;47.536;19.066;2022-09-12T00:26:30;3.05;;;2.85;;
60582;SDS011;46415;47.536;19.066;2022-09-12T00:29:33;2.50;;;2.30;;
60582;SDS011;46415;47.536;19.066;2022-09-12T00:32:35;3.62;;;3.15;;
60582;SDS011;46415;47.536;19.066;2022-09-12T00:35:45;2.25;;;2.05;;
60582;SDS011;46415;47.536;19.066;2022-09-12T00:38:50;2.42;;;2.22;;
60582;SDS011;46415;47.536;19.066;2022-09-12T00:41:53;3.03;;;2.75;;
60582;SDS011;46415;47.536;19.066;2022-09-12T00:44:55;2.10;;;2.00;;
60582;SDS011;46415;47.536;19.066;2022-09-12T00:47:59;3.78;;;3.28;;
60582;SDS011;46415;47.536;19.066;2022-09-12T00:51:04;2.97;;;2.72;;
60582;SDS011;46415;47.536;19.066;2022-09-12T00:54:09;2.65;;;2.40;;
60582;SDS011;46415;47.536;19.066;2022-09-12T00:57:15;6.55;;;2.53;;
60582;SDS011;46415;47.536;19.066;2022-09-12T01:00:20;3.58;;;3.28;;
60582;SDS011;46415;47.536;19.066;2022-09-12T01:03:25;3.28;;;2.90;;
60582;SDS011;46415;47.536;19.066;2022-09-12T01:06:32;3.78;;;3.47;;
60582;SDS011;46415;47.536;19.066;2022-09-12T01:09:38;3.37;;;2.72;;
60582;SDS011;46415;47.536;19.066;2022-09-12T01:12:43;2.92;;;2.72;;
60582;SDS011;46415;47.536;19.066;2022-09-12T01:15:45;2.90;;;2.70;;
60582;SDS011;46415;47.536;19.066;2022-09-12T01:36:25;2.58;;;2.37;;
60582;SDS011;46415;47.536;19.066;2022-09-12T01:43:20;2.28;;;2.08;;
60582;SDS011;46415;47.536;19.066;2022-09-12T01:50:02;2.50;;;2.30;;
60582;SDS011;46415;47.536;19.066;2022-09-12T01:53:14;2.83;;;2.62;;
60582;SDS011;46415;47.536;19.066;2022-09-12T01:56:24;3.22;;;2.55;;
60582;SDS011;46415;47.536;19.066;2022-09-12T01:59:34;2.85;;;2.60;;
60582;SDS011;46415;47.536;19.066;2022-09-12T02:06:14;2.92;;;2.67;;
60582;SDS011;46415;47.536;19.066;2022-09-12T02:09:33;2.58;;;2.10;;
60582;SDS011;46415;47.536;19.066;2022-09-12T02:12:42;2.12;;;2.03;;
60582;SDS011;46415;47.536;19.066;2022-09-12T02:15:52;2.25;;;2.08;;
60582;SDS011;46415;47.536;19.066;2022-09-12T02:19:02;2.30;;;2.20;;
60582;SDS011;46415;47.536;19.066;2022-09-12T02:22:11;2.62;;;2.20;;
60582;SDS011;46415;47.536;19.066;2022-09-12T02:25:19;2.95;;;2.55;;
60582;SDS011;46415;47.536;19.066;2022-09-12T02:28:25;3.87;;;3.58;;
60582;SDS011;46415;47.536;19.066;2022-09-12T02:31:47;4.57;;;3.28;;
60582;SDS011;46415;47.536;19.066;2022-09-12T02:35:02;2.28;;;2.17;;
60582;SDS011;46415;47.536;19.066;2022-09-12T02:41:27;3.08;;;2.42;;
60582;SDS011;46415;47.536;19.066;2022-09-12T02:44:30;5.75;;;2.95;;
60582;SDS011;46415;47.536;19.066;2022-09-12T02:47:42;3.97;;;3.60;;
60582;SDS011;46415;47.536;19.066;2022-09-12T02:50:50;3.87;;;3.30;;
60582;SDS011;46415;47.536;19.066;2022-09-12T02:53:53;3.10;;;2.90;;
60582;SDS011;46415;47.536;19.066;2022-09-12T02:56:56;3.58;;;3.28;;
60582;SDS011;46415;47.536;19.066;2022-09-12T02:59:59;3.85;;;3.20;;
60582;SDS011;46415;47.536;19.066;2022-09-12T03:06:12;4.00;;;3.70;;
60582;SDS011;46415;47.536;19.066;2022-09-12T03:22:54;3.55;;;3.12;;
60582;SDS011;46415;47.536;19.066;2022-09-12T03:26:14;2.95;;;2.75;;
60582;SDS011;46415;47.536;19.066;2022-09-12T03:29:22;3.83;;;3.50;;
60582;SDS011;46415;47.536;19.066;2022-09-12T03:32:40;4.28;;;3.87;;
60582;SDS011;46415;47.536;19.066;2022-09-12T03:35:46;3.37;;;3.08;;
60582;SDS011;46415;47.536;19.066;2022-09-12T03:38:50;4.10;;;2.50;;
60582;SDS011;46415;47.536;19.066;2022-09-12T03:41:53;3.50;;;3.17;;
60582;SDS011;46415;47.536;19.066;2022-09-12T03:44:57;2.60;;;2.25;;
60582;SDS011;46415;47.536;19.066;2022-09-12T03:48:00;3.97;;;3.03;;
60582;SDS011;46415;47.536;19.066;2022-09-12T03:51:03;3.53;;;3.08;;
60582;SDS011;46415;47.536;19.066;2022-09-12T03:54:07;4.55;;;3.10;;
60582;SDS011;46415;47.536;19.066;2022-09-12T03:57:11;4.20;;;3.85;;
60582;SDS011;46415;47.536;19.066;2022-09-12T04:00:13;4.70;;;2.78;;
60582;SDS011;46415;47.536;19.066;2022-09-12T04:03:21;5.35;;;3.05;;
60582;SDS011;46415;47.536;19.066;2022-09-12T04:06:24;4.03;;;3.12;;
60582;SDS011;46415;47.536;19.066;2022-09-12T04:09:26;2.90;;;2.70;;
60582;SDS011;46415;47.536;19.066;2022-09-12T04:12:29;3.12;;;2.92;;
60582;SDS011;46415;47.536;19.066;2022-09-12T04:15:32;3.42;;;3.12;;
60582;SDS011;46415;47.536;19.066;2022-09-12T04:18:34;4.40;;;3.12;;
60582;SDS011;46415;47.536;19.066;2022-09-12T04:21:37;7.70;;;3.37;;
60582;SDS011;46415;47.536;19.066;2022-09-12T04:24:41;4.65;;;3.72;;
60582;SDS011;46415;47.536;19.066;2022-09-12T04:27:43;5.00;;;3.15;;
60582;SDS011;46415;47.536;19.066;2022-09-12T04:30:46;3.22;;;2.97;;
60582;SDS011;46415;47.536;19.066;2022-09-12T04:33:53;3.50;;;3.20;;
60582;SDS011;46415;47.536;19.066;2022-09-12T04:36:57;4.12;;;3.53;;
60582;SDS011;46415;47.536;19.066;2022-09-12T04:40:00;3.97;;;2.90;;
60582;SDS011;46415;47.536;19.066;2022-09-12T04:43:03;3.85;;;3.42;;
60582;SDS011;46415;47.536;19.066;2022-09-12T04:46:13;2.47;;;2.30;;
60582;SDS011;46415;47.536;19.066;2022-09-12T04:49:18;3.55;;;3.05;;
60582;SDS011;46415;47.536;19.066;2022-09-12T04:52:20;3.70;;;3.22;;
60582;SDS011;46415;47.536;19.066;2022-09-12T04:55:23;3.22;;;2.95;;
60582;SDS011;46415;47.536;19.066;2022-09-12T04:58:26;3.62;;;3.30;;
60582;SDS011;46415;47.536;19.066;2022-09-12T05:01:29;3.12;;;2.83;;
60582;SDS011;46415;47.536;19.066;2022-09-12T05:04:32;4.10;;;3.58;;
60582;SDS011;46415;47.536;19.066;2022-09-12T05:07:34;3.45;;;2.87;;
60582;SDS011;46415;47.536;19.066;2022-09-12T05:10:38;5.75;;;3.72;;
60582;SDS011;46415;47.536;19.066;2022-09-12T05:13:40;3.47;;;3.17;;
60582;SDS011;46415;47.536;19.066;2022-09-12T05:16:43;3.62;;;2.75;;
60582;SDS011;46415;47.536;19.066;2022-09-12T05:19:50;2.85;;;2.65;;
60582;SDS011;46415;47.536;19.066;2022-09-12T05:22:54;3.33;;;3.12;;
60582;SDS011;46415;47.536;19.066;2022-09-12T05:25:57;2.92;;;2.20;;
60582;SDS011;46415;47.536;19.066;2022-09-12T05:29:02;3.42;;;3.12;;
60582;SDS011;46415;47.536;19.066;2022-09-12T05:32:05;2.78;;;2.58;;
60582;SDS011;46415;47.536;19.066;2022-09-12T05:35:08;4.10;;;3.55;;
60582;SDS011;46415;47.536;19.066;2022-09-12T05:38:10;3.50;;;2.80;;
60582;SDS011;46415;47.536;19.066;2022-09-12T05:41:20;3.65;;;3.35;;
60582;SDS011;46415;47.536;19.066;2022-09-12T05:44:26;4.80;;;4.30;;
60582;SDS011;46415;47.536;19.066;2022-09-12T05:47:29;4.90;;;4.40;;
60582;SDS011;46415;47.536;19.066;2022-09-12T05:50:32;5.40;;;4.90;;
60582;SDS011;46415;47.536;19.066;2022-09-12T05:53:35;7.45;;;5.20;;
60582;SDS011;46415;47.536;19.066;2022-09-12T05:56:40;3.65;;;3.25;;
60582;SDS011;46415;47.536;19.066;2022-09-12T05:59:43;5.87;;;4.40;;
60582;SDS011;46415;47.536;19.066;2022-09-12T06:02:52;5.20;;;4.40;;
60582;SDS011;46415;47.536;19.066;2022-09-12T06:05:55;6.35;;;5.12;;
60582;SDS011;46415;47.536;19.066;2022-09-12T06:08:58;6.30;;;5.05;;
60582;SDS011;46415;47.536;19.066;2022-09-12T06:12:02;5.75;;;4.95;;
60582;SDS011;46415;47.536;19.066;2022-09-12T06:15:05;4.60;;;4.15;;
60582;SDS011;46415;47.536;19.066;2022-09-12T06:18:09;4.57;;;4.18;;
60582;SDS011;46415;47.536;19.066;2022-09-12T06:21:12;5.45;;;4.95;;
60582;SDS011;46415;47.536;19.066;2022-09-12T06:24:15;5.35;;;4.85;;
60582;SDS011;46415;47.536;19.066;2022-09-12T06:27:19;5.55;;;5.05;;
60582;SDS011;46415;47.536;19.066;2022-09-12T06:30:22;5.28;;;4.60;;
60582;SDS011;46415;47.536;19.066;2022-09-12T06:33:26;5.50;;;4.95;;
60582;SDS011;46415;47.536;19.066;2022-09-12T06:36:30;6.18;;;4.93;;
60582;SDS011;46415;47.536;19.066;2022-09-12T06:39:35;5.97;;;5.37;;
60582;SDS011;46415;47.536;19.066;2022-09-12T06:42:39;6.53;;;4.80;;
60582;SDS011;46415;47.536;19.066;2022-09-12T06:45:47;5.78;;;5.20;;
60582;SDS011;46415;47.536;19.066;2022-09-12T06:48:54;4.95;;;4.45;;
60582;SDS011;46415;47.536;19.066;2022-09-12T06:51:57;6.57;;;5.30;;
60582;SDS011;46415;47.536;19.066;2022-09-12T06:55:00;5.87;;;4.53;;
60582;SDS011;46415;47.536;19.066;2022-09-12T06:58:03;5.35;;;4.85;;
60582;SDS011;46415;47.536;19.066;2022-09-12T07:01:10;5.45;;;4.93;;
60582;SDS011;46415;47.536;19.066;2022-09-12T07:04:15;5.30;;;4.80;;
60582;SDS011;46415;47.536;19.066;2022-09-12T07:07:18;6.87;;;5.10;;
60582;SDS011;46415;47.536;19.066;2022-09-12T07:10:20;5.12;;;4.60;;
60582;SDS011;46415;47.536;19.066;2022-09-12T07:13:24;5.22;;;4.72;;
60582;SDS011;46415;47.536;19.066;2022-09-12T07:16:26;5.85;;;5.25;;
60582;SDS011;46415;47.536;19.066;2022-09-12T07:19:30;5.03;;;4.53;;
60582;SDS011;46415;47.536;19.066;2022-09-12T07:22:32;5.78;;;5.18;;
60582;SDS011;46415;47.536;19.066;2022-09-12T07:25:35;5.28;;;4.78;;
60582;SDS011;46415;47.536;19.066;2022-09-12T07:28:39;5.18;;;4.43;;
60582;SDS011;46415;47.536;19.066;2022-09-12T07:31:42;4.82;;;4.32;;
60582;SDS011;46415;47.536;19.066;2022-09-12T07:34:45;5.35;;;4.40;;
60582;SDS011;46415;47.536;19.066;2022-09-12T07:37:48;5.35;;;4.07;;
60582;SDS011;46415;47.536;19.066;2022-09-12T07:40:51;4.62;;;4.10;;
60582;SDS011;46415;47.536;19.066;2022-09-12T07:43:55;4.72;;;4.28;;
60582;SDS011;46415;47.536;19.066;2022-09-12T07:46:59;4.30;;;3.92;;
60582;SDS011;46415;47.536;19.066;2022-09-12T07:50:02;4.78;;;4.37;;
60582;SDS011;46415;47.536;19.066;2022-09-12T07:53:05;4.70;;;4.30;;
60582;SDS011;46415;47.536;19.066;2022-09-12T07:56:08;4.30;;;3.90;;
60582;SDS011;46415;47.536;19.066;2022-09-12T07:59:12;4.20;;;3.80;;
60582;SDS011;46415;47.536;19.066;2022-09-12T08:02:40;3.70;;;3.40;;
60582;SDS011;46415;47.536;19.066;2022-09-12T08:05:42;4.10;;;3.70;;
60582;SDS011;46415;47.536;19.066;2022-09-12T08:08:46;4.20;;;3.80;;
60582;SDS011;46415;47.536;19.066;2022-09-12T08:11:49;4.93;;;3.85;;
60582;SDS011;46415;47.536;19.066;2022-09-12T08:14:52;4.10;;;3.65;;
60582;SDS011;46415;47.536;19.066;2022-09-12T08:17:55;4.20;;;3.80;;
60582;SDS011;46415;47.536;19.066;2022-09-12T08:20:58;4.00;;;3.67;;
60582;SDS011;46415;47.536;19.066;2022-09-12T08:24:03;3.70;;;3.33;;
60582;SDS011;46415;47.536;19.066;2022-09-12T08:27:07;4.25;;;3.85;;
60582;SDS011;46415;47.536;19.066;2022-09-12T08:30:10;4.37;;;3.75;;
60582;SDS011;46415;47.536;19.066;2022-09-12T08:33:16;4.87;;;4.07;;
60582;SDS011;46415;47.536;19.066;2022-09-12T08:36:20;4.12;;;3.80;;
60582;SDS011;46415;47.536;19.066;2022-09-12T08:39:25;4.95;;;3.70;;
60582;SDS011;46415;47.536;19.066;2022-09-12T08:42:32;3.80;;;3.45;;
60582;SDS011;46415;47.536;19.066;2022-09-12T08:45:50;3.28;;;3.03;;
60582;SDS011;46415;47.536;19.066;2022-09-12T08:48:59;3.60;;;3.30;;
60582;SDS011;46415;47.536;19.066;2022-09-12T08:52:10;3.53;;;3.22;;
60582;SDS011;46415;47.536;19.066;2022-09-12T08:58:37;3.17;;;2.90;;
60582;SDS011;46415;47.536;19.066;2022-09-12T09:01:42;3.20;;;2.90;;
60582;SDS011;46415;47.536;19.066;2022-09-12T09:04:50;3.05;;;2.75;;
60582;SDS011;46415;47.536;19.066;2022-09-12T09:11:18;2.87;;;2.67;;
60582;SDS011;46415;47.536;19.066;2022-09-12T09:18:00;2.60;;;2.40;;
60582;SDS011;46415;47.536;19.066;2022-09-12T09:21:27;3.15;;;2.47;;
60582;SDS011;46415;47.536;19.066;2022-09-12T09:24:42;2.75;;;2.50;;
60582;SDS011;46415;47.536;19.066;2022-09-12T09:31:24;2.80;;;2.60;;
60582;SDS011;46415;47.536;19.066;2022-09-12T09:34:30;2.58;;;2.35;;
60582;SDS011;46415;47.536;19.066;2022-09-12T09:37:42;2.03;;;1.92;;
60582;SDS011;46415;47.536;19.066;2022-09-12T09:41:03;2.13;;;2.03;;
60582;SDS011;46415;47.536;19.066;2022-09-12T09:44:15;2.40;;;2.22;;
60582;SDS011;46415;47.536;19.066;2022-09-12T09:47:18;2.42;;;2.22;;
60582;SDS011;46415;47.536;19.066;2022-09-12T09:50:21;2.30;;;2.17;;
60582;SDS011;46415;47.536;19.066;2022-09-12T10:00:37;2.25;;;2.15;;
60582;SDS011;46415;47.536;19.066;2022-09-12T10:03:50;2.30;;;2.10;;
60582;SDS011;46415;47.536;19.066;2022-09-12T10:06:58;2.60;;;2.40;;
60582;SDS011;46415;47.536;19.066;2022-09-12T10:10:20;2.35;;;2.00;;
60582;SDS011;46415;47.536;19.066;2022-09-12T10:16:48;3.47;;;2.33;;
60582;SDS011;46415;47.536;19.066;2022-09-12T10:19:54;2.22;;;2.10;;
60582;SDS011;46415;47.536;19.066;2022-09-12T10:23:29;1.77;;;1.67;;
60582;SDS011;46415;47.536;19.066;2022-09-12T10:26:38;1.67;;;1.58;;
60582;SDS011;46415;47.536;19.066;2022-09-12T10:29:48;1.80;;;1.60;;
60582;SDS011;46415;47.536;19.066;2022-09-12T10:32:57;1.65;;;1.55;;
60582;SDS011;46415;47.536;19.066;2022-09-12T10:36:07;1.83;;;1.73;;
60582;SDS011;46415;47.536;19.066;2022-09-12T10:39:11;1.65;;;1.55;;
60582;SDS011;46415;47.536;19.066;2022-09-12T10:48:51;3.40;;;2.10;;
60582;SDS011;46415;47.536;19.066;2022-09-12T10:52:22;1.85;;;1.75;;
60582;SDS011;46415;47.536;19.066;2022-09-12T10:55:31;1.90;;;1.80;;
60582;SDS011;46415;47.536;19.066;2022-09-12T10:58:42;2.05;;;1.95;;
60582;SDS011;46415;47.536;19.066;2022-09-12T11:05:11;1.85;;;1.75;;
60582;SDS011;46415;47.536;19.066;2022-09-12T11:25:35;1.70;;;1.60;;
60582;SDS011;46415;47.536;19.066;2022-09-12T11:28:51;2.03;;;1.83;;
60582;SDS011;46415;47.536;19.066;2022-09-12T11:35:27;1.60;;;1.50;;
60582;SDS011;46415;47.536;19.066;2022-09-12T11:41:56;1.67;;;1.58;;
60582;SDS011;46415;47.536;19.066;2022-09-12T11:45:03;1.90;;;1.80;;
60582;SDS011;46415;47.536;19.066;2022-09-12T11:48:23;1.90;;;1.80;;
60582;SDS011;46415;47.536;19.066;2022-09-12T11:51:57;2.12;;;2.03;;
60582;SDS011;46415;47.536;19.066;2022-09-12T11:55:24;1.80;;;1.70;;
60582;SDS011;46415;47.536;19.066;2022-09-12T11:58:31;2.08;;;1.98;;
60582;SDS011;46415;47.536;19.066;2022-09-12T12:01:37;2.30;;;2.10;;
60582;SDS011;46415;47.536;19.066;2022-09-12T12:08:23;2.22;;;1.65;;
60582;SDS011;46415;47.536;19.066;2022-09-12T12:14:42;2.12;;;1.92;;
60582;SDS011;46415;47.536;19.066;2022-09-12T12:21:50;2.10;;;1.90;;
60582;SDS011;46415;47.536;19.066;2022-09-12T12:24:33;2.28;;;2.08;;
60582;SDS011;46415;47.536;19.066;2022-09-12T12:28:19;2.00;;;1.90;;
60582;SDS011;46415;47.536;19.066;2022-09-12T12:31:08;1.80;;;1.70;;
60582;SDS011;46415;47.536;19.066;2022-09-12T12:40:45;2.08;;;1.98;;
60582;SDS011;46415;47.536;19.066;2022-09-12T12:43:52;1.83;;;1.73;;
60582;SDS011;46415;47.536;19.066;2022-09-12T12:50:21;2.12;;;1.62;;
60582;SDS011;46415;47.536;19.066;2022-09-12T12:53:30;1.98;;;1.83;;
60582;SDS011;46415;47.536;19.066;2022-09-12T13:00:03;1.87;;;1.77;;
60582;SDS011;46415;47.536;19.066;2022-09-12T13:03:44;1.62;;;1.52;;
60582;SDS011;46415;47.536;19.066;2022-09-12T13:06:43;2.12;;;1.52;;
60582;SDS011;46415;47.536;19.066;2022-09-12T13:09:49;1.42;;;1.40;;
60582;SDS011;46415;47.536;19.066;2022-09-12T13:12:58;1.75;;;1.65;;
60582;SDS011;46415;47.536;19.066;2022-09-12T13:16:04;2.35;;;1.55;;
60582;SDS011;46415;47.536;19.066;2022-09-12T13:19:12;1.60;;;1.50;;
60582;SDS011;46415;47.536;19.066;2022-09-12T13:22:21;1.70;;;1.60;;
60582;SDS011;46415;47.536;19.066;2022-09-12T13:25:29;2.10;;;1.60;;
60582;SDS011;46415;47.536;19.066;2022-09-12T13:28:34;1.73;;;1.62;;
60582;SDS011;46415;47.536;19.066;2022-09-12T13:31:37;1.80;;;1.70;;
60582;SDS011;46415;47.536;19.066;2022-09-12T13:45:35;1.55;;;1.45;;
60582;SDS011;46415;47.536;19.066;2022-09-12T13:48:40;1.58;;;1.48;;
60582;SDS011;46415;47.536;19.066;2022-09-12T13:51:44;1.42;;;1.33;;
60582;SDS011;46415;47.536;19.066;2022-09-12T13:54:49;1.23;;;1.23;;
60582;SDS011;46415;47.536;19.066;2022-09-12T13:58:02;1.15;;;1.15;;
60582;SDS011;46415;47.536;19.066;2022-09-12T14:07:39;1.15;;;1.05;;
60582;SDS011;46415;47.536;19.066;2022-09-12T14:10:52;1.02;;;1.02;;
60582;SDS011;46415;47.536;19.066;2022-09-12T14:13:56;1.30;;;1.20;;
60582;SDS011;46415;47.536;19.066;2022-09-12T14:16:59;0.90;;;0.90;;
60582;SDS011;46415;47.536;19.066;2022-09-12T14:20:04;3.10;;;1.00;;
60582;SDS011;46415;47.536;19.066;2022-09-12T14:26:34;1.33;;;1.23;;
60582;SDS011;46415;47.536;19.066;2022-09-12T14:29:41;1.25;;;1.12;;
60582;SDS011;46415;47.536;19.066;2022-09-12T14:33:04;1.00;;;1.00;;
60582;SDS011;46415;47.536;19.066;2022-09-12T14:36:08;0.95;;;0.95;;
60582;SDS011;46415;47.536;19.066;2022-09-12T14:39:18;1.00;;;1.00;;
60582;SDS011;46415;47.536;19.066;2022-09-12T14:42:24;0.85;;;0.85;;
60582;SDS011;46415;47.536;19.066;2022-09-12T14:45:31;0.93;;;0.93;;
60582;SDS011;46415;47.536;19.066;2022-09-12T14:48:35;0.82;;;0.82;;
60582;SDS011;46415;47.536;19.066;2022-09-12T14:55:03;1.20;;;1.10;;
60582;SDS011;46415;47.536;19.066;2022-09-12T14:58:23;1.02;;;1.02;;
60582;SDS011;46415;47.536;19.066;2022-09-12T15:01:28;0.82;;;0.82;;
60582;SDS011;46415;47.536;19.066;2022-09-12T15:04:38;1.10;;;1.10;;
60582;SDS011;46415;47.536;19.066;2022-09-12T15:07:49;1.45;;;1.00;;
60582;SDS011;46415;47.536;19.066;2022-09-12T15:10:55;0.82;;;0.82;;
60582;SDS011;46415;47.536;19.066;2022-09-12T15:14:05;1.08;;;1.08;;
60582;SDS011;46415;47.536;19.066;2022-09-12T15:17:14;0.80;;;0.80;;
60582;SDS011;46415;47.536;19.066;2022-09-12T15:20:16;1.20;;;1.20;;
60582;SDS011;46415;47.536;19.066;2022-09-12T15:23:21;0.80;;;0.80;;
60582;SDS011;46415;47.536;19.066;2022-09-12T15:26:32;0.75;;;0.75;;
60582;SDS011;46415;47.536;19.066;2022-09-12T15:29:35;2.22;;;0.80;;
60582;SDS011;46415;47.536;19.066;2022-09-12T15:32:38;1.48;;;0.80;;
60582;SDS011;46415;47.536;19.066;2022-09-12T15:35:43;0.80;;;0.80;;
60582;SDS011;46415;47.536;19.066;2022-09-12T15:38:46;0.80;;;0.80;;
60582;SDS011;46415;47.536;19.066;2022-09-12T15:41:50;0.80;;;0.80;;
60582;SDS011;46415;47.536;19.066;2022-09-12T15:44:53;0.90;;;0.90;;
60582;SDS011;46415;47.536;19.066;2022-09-12T15:47:58;0.73;;;0.73;;
60582;SDS011;46415;47.536;19.066;2022-09-12T15:51:01;0.80;;;0.80;;
60582;SDS011;46415;47.536;19.066;2022-09-12T15:54:05;0.80;;;0.80;;
60582;SDS011;46415;47.536;19.066;2022-09-12T15:57:08;1.08;;;1.00;;
60582;SDS011;46415;47.536;19.066;2022-09-12T16:00:11;0.70;;;0.70;;
60582;SDS011;46415;47.536;19.066;2022-09-12T16:03:18;1.02;;;1.02;;
60582;SDS011;46415;47.536;19.066;2022-09-12T16:06:28;0.85;;;0.85;;
60582;SDS011;46415;47.536;19.066;2022-09-12T16:09:38;0.82;;;0.82;;
60582;SDS011;46415;47.536;19.066;2022-09-12T16:12:42;1.20;;;1.10;;
60582;SDS011;46415;47.536;19.066;2022-09-12T16:15:45;1.05;;;1.05;;
60582;SDS011;46415;47.536;19.066;2022-09-12T16:18:48;1.05;;;0.95;;
60582;SDS011;46415;47.536;19.066;2022-09-12T16:21:51;0.90;;;0.90;;
60582;SDS011;46415;47.536;19.066;2022-09-12T16:24:53;1.48;;;1.00;;
60582;SDS011;46415;47.536;19.066;2022-09-12T16:27:56;1.15;;;1.05;;
60582;SDS011;46415;47.536;19.066;2022-09-12T16:31:00;0.80;;;0.80;;
60582;SDS011;46415;47.536;19.066;2022-09-12T16:34:07;1.20;;;0.80;;
60582;SDS011;46415;47.536;19.066;2022-09-12T16:37:09;0.95;;;0.90;;
60582;SDS011;46415;47.536;19.066;2022-09-12T16:40:12;0.95;;;0.95;;
60582;SDS011;46415;47.536;19.066;2022-09-12T16:43:17;1.00;;;1.00;;
60582;SDS011;46415;47.536;19.066;2022-09-12T16:46:20;0.90;;;0.90;;
60582;SDS011;46415;47.536;19.066;2022-09-12T16:49:25;0.90;;;0.70;;
60582;SDS011;46415;47.536;19.066;2022-09-12T16:52:28;2.28;;;0.90;;
60582;SDS011;46415;47.536;19.066;2022-09-12T16:55:31;1.00;;;0.80;;
60582;SDS011;46415;47.536;19.066;2022-09-12T16:58:34;0.93;;;0.90;;
60582;SDS011;46415;47.536;19.066;2022-09-12T17:01:43;1.00;;;0.95;;
60582;SDS011;46415;47.536;19.066;2022-09-12T17:04:46;0.95;;;0.90;;
60582;SDS011;46415;47.536;19.066;2022-09-12T17:07:50;0.85;;;0.85;;
60582;SDS011;46415;47.536;19.066;2022-09-12T17:11:00;1.02;;;0.90;;
60582;SDS011;46415;47.536;19.066;2022-09-12T17:14:07;0.82;;;0.82;;
60582;SDS011;46415;47.536;19.066;2022-09-12T17:17:10;1.10;;;1.00;;
60582;SDS011;46415;47.536;19.066;2022-09-12T17:20:13;0.80;;;0.80;;
60582;SDS011;46415;47.536;19.066;2022-09-12T17:23:16;1.10;;;1.02;;
60582;SDS011;46415;47.536;19.066;2022-09-12T17:26:19;1.02;;;1.02;;
60582;SDS011;46415;47.536;19.066;2022-09-12T17:29:22;1.30;;;1.08;;
60582;SDS011;46415;47.536;19.066;2022-09-12T17:32:24;0.90;;;0.90;;
60582;SDS011;46415;47.536;19.066;2022-09-12T17:35:27;1.00;;;1.00;;
60582;SDS011;46415;47.536;19.066;2022-09-12T17:38:30;1.10;;;1.00;;
60582;SDS011;46415;47.536;19.066;2022-09-12T17:41:35;1.02;;;0.90;;
60582;SDS011;46415;47.536;19.066;2022-09-12T17:44:38;1.08;;;0.95;;
60582;SDS011;46415;47.536;19.066;2022-09-12T17:47:41;1.62;;;1.10;;
60582;SDS011;46415;47.536;19.066;2022-09-12T17:50:44;0.80;;;0.80;;
60582;SDS011;46415;47.536;19.066;2022-09-12T17:53:47;1.20;;;1.10;;
60582;SDS011;46415;47.536;19.066;2022-09-12T17:56:50;1.17;;;1.05;;
60582;SDS011;46415;47.536;19.066;2022-09-12T17:59:53;0.82;;;0.82;;
60582;SDS011;46415;47.536;19.066;2022-09-12T18:02:56;1.12;;;1.00;;
60582;SDS011;46415;47.536;19.066;2022-09-12T18:05:59;1.20;;;1.20;;
60582;SDS011;46415;47.536;19.066;2022-09-12T18:09:03;0.93;;;0.93;;
60582;SDS011;46415;47.536;19.066;2022-09-12T18:12:07;1.30;;;1.20;;
60582;SDS011;46415;47.536;19.066;2022-09-12T18:15:11;1.45;;;1.30;;
60582;SDS011;46415;47.536;19.066;2022-09-12T18:18:14;1.27;;;1.20;;
60582;SDS011;46415;47.536;19.066;2022-09-12T18:21:17;1.17;;;1.08;;
60582;SDS011;46415;47.536;19.066;2022-09-12T18:24:21;1.60;;;1.00;;
60582;SDS011;46415;47.536;19.066;2022-09-12T18:27:24;1.37;;;1.27;;
60582;SDS011;46415;47.536;19.066;2022-09-12T18:30:28;1.40;;;1.30;;
60582;SDS011;46415;47.536;19.066;2022-09-12T18:33:31;1.40;;;1.30;;
60582;SDS011;46415;47.536;19.066;2022-09-12T18:36:35;1.52;;;1.40;;
60582;SDS011;46415;47.536;19.066;2022-09-12T18:39:38;1.27;;;1.17;;
60582;SDS011;46415;47.536;19.066;2022-09-12T18:42:41;0.98;;;0.98;;
60582;SDS011;46415;47.536;19.066;2022-09-12T18:45:43;1.20;;;1.10;;
60582;SDS011;46415;47.536;19.066;2022-09-12T18:48:46;1.20;;;1.10;;
60582;SDS011;46415;47.536;19.066;2022-09-12T18:51:48;1.83;;;1.30;;
60582;SDS011;46415;47.536;19.066;2022-09-12T18:54:51;1.40;;;1.30;;
60582;SDS011;46415;47.536;19.066;2022-09-12T18:57:54;1.58;;;1.42;;
60582;SDS011;46415;47.536;19.066;2022-09-12T19:00:57;1.37;;;1.27;;
60582;SDS011;46415;47.536;19.066;2022-09-12T19:04:00;1.20;;;1.20;;
60582;SDS011;46415;47.536;19.066;2022-09-12T19:07:06;1.50;;;1.40;;
60582;SDS011;46415;47.536;19.066;2022-09-12T19:10:08;2.00;;;1.80;;
60582;SDS011;46415;47.536;19.066;2022-09-12T19:13:11;1.40;;;1.30;;
60582;SDS011;46415;47.536;19.066;2022-09-12T19:16:32;1.40;;;1.30;;
60582;SDS011;46415;47.536;19.066;2022-09-12T19:19:36;1.48;;;1.37;;
60582;SDS011;46415;47.536;19.066;2022-09-12T19:22:41;1.42;;;1.33;;
60582;SDS011;46415;47.536;19.066;2022-09-12T19:25:54;1.62;;;1.52;;
60582;SDS011;46415;47.536;19.066;2022-09-12T19:28:58;1.67;;;1.30;;
60582;SDS011;46415;47.536;19.066;2022-09-12T19:32:04;1.60;;;1.50;;
60582;SDS011;46415;47.536;19.066;2022-09-12T19:35:06;1.80;;;1.70;;
60582;SDS011;46415;47.536;19.066;2022-09-12T19:38:09;1.80;;;1.62;;
60582;SDS011;46415;47.536;19.066;2022-09-12T19:41:13;1.58;;;1.48;;
60582;SDS011;46415;47.536;19.066;2022-09-12T19:44:16;1.60;;;1.50;;
60582;SDS011;46415;47.536;19.066;2022-09-12T19:47:20;3.05;;;1.77;;
60582;SDS011;46415;47.536;19.066;2022-09-12T19:50:26;1.73;;;1.62;;
60582;SDS011;46415;47.536;19.066;2022-09-12T19:53:29;1.17;;;1.17;;
60582;SDS011;46415;47.536;19.066;2022-09-12T19:56:32;1.92;;;1.83;;
60582;SDS011;46415;47.536;19.066;2022-09-12T19:59:38;1.98;;;1.87;;
60582;SDS011;46415;47.536;19.066;2022-09-12T20:02:41;2.22;;;1.60;;
60582;SDS011;46415;47.536;19.066;2022-09-12T20:05:44;1.70;;;1.60;;
60582;SDS011;46415;47.536;19.066;2022-09-12T20:08:47;2.05;;;1.85;;
60582;SDS011;46415;47.536;19.066;2022-09-12T20:11:50;1.62;;;1.52;;
60582;SDS011;46415;47.536;19.066;2022-09-12T20:14:53;2.12;;;1.62;;
60582;SDS011;46415;47.536;19.066;2022-09-12T20:17:56;1.90;;;1.80;;
60582;SDS011;46415;47.536;19.066;2022-09-12T20:21:05;1.52;;;1.42;;
60582;SDS011;46415;47.536;19.066;2022-09-12T20:24:13;1.55;;;1.15;;
60582;SDS011;46415;47.536;19.066;2022-09-12T20:27:17;1.80;;;1.70;;
60582;SDS011;46415;47.536;19.066;2022-09-12T20:30:20;1.55;;;1.45;;
60582;SDS011;46415;47.536;19.066;2022-09-12T20:33:22;2.10;;;1.90;;
60582;SDS011;46415;47.536;19.066;2022-09-12T20:36:25;1.90;;;1.70;;
60582;SDS011;46415;47.536;19.066;2022-09-12T20:39:28;1.75;;;1.65;;
60582;SDS011;46415;47.536;19.066;2022-09-12T20:42:30;1.10;;;1.10;;
60582;SDS011;46415;47.536;19.066;2022-09-12T20:45:38;1.98;;;1.77;;
60582;SDS011;46415;47.536;19.066;2022-09-12T20:48:42;1.40;;;1.30;;
60582;SDS011;46415;47.536;19.066;2022-09-12T20:51:45;1.73;;;1.55;;
60582;SDS011;46415;47.536;19.066;2022-09-12T20:54:49;1.60;;;1.50;;
60582;SDS011;46415;47.536;19.066;2022-09-12T20:57:52;1.60;;;1.50;;